sensor_id;sensor_type;location;lat;lon;timestamp;P1;durP1;ratioP1;P2;durP2;ratioP2
68247;SDS011;55064;49.636;12.164;2022-11-20T00:01:25;30.08;;;10.70;;
68247;SDS011;55064;49.636;12.164;2022-11-20T00:03:51;27.93;;;10.50;;
68247;SDS011;55064;49.636;12.164;2022-11-20T00:06:18;30.83;;;10.60;;
68247;SDS011;55064;49.636;12.164;2022-11-20T00:08:44;25.33;;;10.45;;
68247;SDS011;55064;49.636;12.164;2022-11-20T00:11:12;29.92;;;11.27;;
68247;SDS011;55064;49.636;12.164;2022-11-20T00:13:40;29.30;;;10.80;;
68247;SDS011;55064;49.636;12.164;2022-11-20T00:16:06;28.40;;;10.60;;
68247;SDS011;55064;49.636;12.164;2022-11-20T00:18:34;29.73;;;10.30;;
68247;SDS011;55064;49.636;12.164;2022-11-20T00:21:03;30.75;;;11.43;;
68247;SDS011;55064;49.636;12.164;2022-11-20T00:23:34;26.85;;;10.45;;
68247;SDS011;55064;49.636;12.164;2022-11-20T00:26:03;24.27;;;10.00;;
68247;SDS011;55064;49.636;12.164;2022-11-20T00:28:30;29.13;;;11.32;;
68247;SDS011;55064;49.636;12.164;2022-11-20T00:31:04;31.40;;;11.13;;
68247;SDS011;55064;49.636;12.164;2022-11-20T00:33:40;32.40;;;11.68;;
68247;SDS011;55064;49.636;12.164;2022-11-20T00:36:07;29.80;;;11.35;;
68247;SDS011;55064;49.636;12.164;2022-11-20T00:38:35;26.30;;;10.37;;
68247;SDS011;55064;49.636;12.164;2022-11-20T00:41:02;24.52;;;10.20;;
68247;SDS011;55064;49.636;12.164;2022-11-20T00:43:33;26.38;;;10.02;;
68247;SDS011;55064;49.636;12.164;2022-11-20T00:45:59;27.40;;;10.25;;
68247;SDS011;55064;49.636;12.164;2022-11-20T00:48:26;25.42;;;9.85;;
68247;SDS011;55064;49.636;12.164;2022-11-20T00:50:52;27.50;;;10.23;;
68247;SDS011;55064;49.636;12.164;2022-11-20T00:53:20;24.95;;;10.20;;
68247;SDS011;55064;49.636;12.164;2022-11-20T00:58:21;25.88;;;9.63;;
68247;SDS011;55064;49.636;12.164;2022-11-20T01:00:47;30.15;;;11.13;;
68247;SDS011;55064;49.636;12.164;2022-11-20T01:03:14;27.65;;;10.68;;
68247;SDS011;55064;49.636;12.164;2022-11-20T01:05:40;27.75;;;10.38;;
68247;SDS011;55064;49.636;12.164;2022-11-20T01:08:05;25.60;;;9.53;;
68247;SDS011;55064;49.636;12.164;2022-11-20T01:10:31;28.57;;;9.60;;
68247;SDS011;55064;49.636;12.164;2022-11-20T01:12:56;29.27;;;9.97;;
68247;SDS011;55064;49.636;12.164;2022-11-20T01:15:40;24.73;;;9.30;;
68247;SDS011;55064;49.636;12.164;2022-11-20T01:18:08;29.00;;;10.57;;
68247;SDS011;55064;49.636;12.164;2022-11-20T01:20:36;23.73;;;8.60;;
68247;SDS011;55064;49.636;12.164;2022-11-20T01:23:02;24.02;;;9.25;;
68247;SDS011;55064;49.636;12.164;2022-11-20T01:25:33;25.80;;;9.67;;
68247;SDS011;55064;49.636;12.164;2022-11-20T01:28:02;25.05;;;9.50;;
68247;SDS011;55064;49.636;12.164;2022-11-20T01:30:28;25.20;;;9.27;;
68247;SDS011;55064;49.636;12.164;2022-11-20T01:32:55;30.75;;;10.52;;
68247;SDS011;55064;49.636;12.164;2022-11-20T01:35:23;26.73;;;9.25;;
68247;SDS011;55064;49.636;12.164;2022-11-20T01:37:51;26.50;;;9.03;;
68247;SDS011;55064;49.636;12.164;2022-11-20T01:40:16;25.60;;;9.70;;
68247;SDS011;55064;49.636;12.164;2022-11-20T01:42:46;29.58;;;9.73;;
68247;SDS011;55064;49.636;12.164;2022-11-20T01:48:22;27.83;;;10.17;;
68247;SDS011;55064;49.636;12.164;2022-11-20T01:50:50;28.25;;;9.77;;
68247;SDS011;55064;49.636;12.164;2022-11-20T01:53:21;25.02;;;9.13;;
68247;SDS011;55064;49.636;12.164;2022-11-20T01:55:55;28.90;;;10.45;;
68247;SDS011;55064;49.636;12.164;2022-11-20T01:58:24;27.60;;;9.88;;
68247;SDS011;55064;49.636;12.164;2022-11-20T02:00:53;25.33;;;9.63;;
68247;SDS011;55064;49.636;12.164;2022-11-20T02:03:23;28.23;;;9.98;;
68247;SDS011;55064;49.636;12.164;2022-11-20T02:08:20;28.17;;;9.98;;
68247;SDS011;55064;49.636;12.164;2022-11-20T02:10:48;27.92;;;9.48;;
68247;SDS011;55064;49.636;12.164;2022-11-20T02:13:13;27.00;;;9.77;;
68247;SDS011;55064;49.636;12.164;2022-11-20T02:18:50;30.60;;;10.03;;
68247;SDS011;55064;49.636;12.164;2022-11-20T02:21:30;27.33;;;9.57;;
68247;SDS011;55064;49.636;12.164;2022-11-20T02:24:04;29.65;;;10.02;;
68247;SDS011;55064;49.636;12.164;2022-11-20T02:26:33;28.35;;;10.40;;
68247;SDS011;55064;49.636;12.164;2022-11-20T02:29:06;25.73;;;9.75;;
68247;SDS011;55064;49.636;12.164;2022-11-20T02:31:38;28.63;;;10.70;;
68247;SDS011;55064;49.636;12.164;2022-11-20T02:34:06;27.15;;;10.00;;
68247;SDS011;55064;49.636;12.164;2022-11-20T02:36:36;25.83;;;9.53;;
68247;SDS011;55064;49.636;12.164;2022-11-20T02:39:07;29.83;;;10.60;;
68247;SDS011;55064;49.636;12.164;2022-11-20T02:41:38;27.80;;;10.43;;
68247;SDS011;55064;49.636;12.164;2022-11-20T02:44:04;30.13;;;10.20;;
68247;SDS011;55064;49.636;12.164;2022-11-20T02:46:30;27.65;;;9.82;;
68247;SDS011;55064;49.636;12.164;2022-11-20T02:48:56;25.55;;;9.48;;
68247;SDS011;55064;49.636;12.164;2022-11-20T02:51:22;26.77;;;9.37;;
68247;SDS011;55064;49.636;12.164;2022-11-20T02:53:48;28.35;;;9.52;;
68247;SDS011;55064;49.636;12.164;2022-11-20T02:56:16;29.42;;;9.95;;
68247;SDS011;55064;49.636;12.164;2022-11-20T02:58:41;28.53;;;9.93;;
68247;SDS011;55064;49.636;12.164;2022-11-20T03:01:09;29.40;;;10.00;;
68247;SDS011;55064;49.636;12.164;2022-11-20T03:03:34;28.50;;;10.60;;
68247;SDS011;55064;49.636;12.164;2022-11-20T03:06:02;29.20;;;10.80;;
68247;SDS011;55064;49.636;12.164;2022-11-20T03:08:27;28.77;;;10.20;;
68247;SDS011;55064;49.636;12.164;2022-11-20T03:10:53;29.93;;;11.30;;
68247;SDS011;55064;49.636;12.164;2022-11-20T03:13:18;30.67;;;9.83;;
68247;SDS011;55064;49.636;12.164;2022-11-20T03:15:48;25.85;;;9.57;;
68247;SDS011;55064;49.636;12.164;2022-11-20T03:18:14;29.98;;;10.65;;
68247;SDS011;55064;49.636;12.164;2022-11-20T03:20:39;28.90;;;10.67;;
68247;SDS011;55064;49.636;12.164;2022-11-20T03:23:09;26.95;;;9.98;;
68247;SDS011;55064;49.636;12.164;2022-11-20T03:25:35;27.02;;;10.23;;
68247;SDS011;55064;49.636;12.164;2022-11-20T03:28:03;27.10;;;9.63;;
68247;SDS011;55064;49.636;12.164;2022-11-20T03:30:29;28.02;;;9.35;;
68247;SDS011;55064;49.636;12.164;2022-11-20T03:32:57;29.85;;;10.13;;
68247;SDS011;55064;49.636;12.164;2022-11-20T03:35:22;28.87;;;10.30;;
68247;SDS011;55064;49.636;12.164;2022-11-20T03:37:50;28.38;;;9.85;;
68247;SDS011;55064;49.636;12.164;2022-11-20T03:40:18;28.10;;;10.57;;
68247;SDS011;55064;49.636;12.164;2022-11-20T03:42:43;29.03;;;9.87;;
68247;SDS011;55064;49.636;12.164;2022-11-20T03:45:17;30.83;;;10.63;;
68247;SDS011;55064;49.636;12.164;2022-11-20T03:47:43;30.67;;;10.35;;
68247;SDS011;55064;49.636;12.164;2022-11-20T03:50:12;32.47;;;11.27;;
68247;SDS011;55064;49.636;12.164;2022-11-20T03:52:38;35.38;;;10.95;;
68247;SDS011;55064;49.636;12.164;2022-11-20T03:55:07;32.07;;;10.80;;
68247;SDS011;55064;49.636;12.164;2022-11-20T03:57:35;35.13;;;11.38;;
68247;SDS011;55064;49.636;12.164;2022-11-20T04:00:00;30.17;;;11.47;;
68247;SDS011;55064;49.636;12.164;2022-11-20T04:02:28;29.85;;;10.27;;
68247;SDS011;55064;49.636;12.164;2022-11-20T04:04:54;28.13;;;10.33;;
68247;SDS011;55064;49.636;12.164;2022-11-20T04:07:21;27.33;;;9.90;;
68247;SDS011;55064;49.636;12.164;2022-11-20T04:09:49;29.17;;;10.15;;
68247;SDS011;55064;49.636;12.164;2022-11-20T04:12:14;26.33;;;9.37;;
68247;SDS011;55064;49.636;12.164;2022-11-20T04:14:40;27.20;;;10.43;;
68247;SDS011;55064;49.636;12.164;2022-11-20T04:17:08;26.30;;;9.93;;
68247;SDS011;55064;49.636;12.164;2022-11-20T04:19:33;25.33;;;9.00;;
68247;SDS011;55064;49.636;12.164;2022-11-20T04:21:58;27.27;;;9.13;;
68247;SDS011;55064;49.636;12.164;2022-11-20T04:24:24;26.93;;;9.87;;
68247;SDS011;55064;49.636;12.164;2022-11-20T04:26:51;27.30;;;9.80;;
68247;SDS011;55064;49.636;12.164;2022-11-20T04:29:17;28.60;;;10.10;;
68247;SDS011;55064;49.636;12.164;2022-11-20T04:31:42;28.40;;;10.10;;
68247;SDS011;55064;49.636;12.164;2022-11-20T04:34:07;29.93;;;10.20;;
68247;SDS011;55064;49.636;12.164;2022-11-20T04:36:37;31.30;;;10.38;;
68247;SDS011;55064;49.636;12.164;2022-11-20T04:39:03;29.83;;;10.30;;
68247;SDS011;55064;49.636;12.164;2022-11-20T04:41:32;30.42;;;10.65;;
68247;SDS011;55064;49.636;12.164;2022-11-20T04:44:02;32.30;;;11.25;;
68247;SDS011;55064;49.636;12.164;2022-11-20T04:46:29;34.28;;;10.63;;
68247;SDS011;55064;49.636;12.164;2022-11-20T04:48:56;32.65;;;11.45;;
68247;SDS011;55064;49.636;12.164;2022-11-20T04:51:22;33.87;;;11.17;;
68247;SDS011;55064;49.636;12.164;2022-11-20T04:53:48;36.30;;;12.35;;
68247;SDS011;55064;49.636;12.164;2022-11-20T04:56:13;36.53;;;11.90;;
68247;SDS011;55064;49.636;12.164;2022-11-20T04:58:41;31.75;;;11.07;;
68247;SDS011;55064;49.636;12.164;2022-11-20T05:03:46;32.00;;;11.23;;
68247;SDS011;55064;49.636;12.164;2022-11-20T05:06:13;40.20;;;12.17;;
68247;SDS011;55064;49.636;12.164;2022-11-20T05:08:40;32.93;;;10.63;;
68247;SDS011;55064;49.636;12.164;2022-11-20T05:11:07;37.28;;;11.98;;
68247;SDS011;55064;49.636;12.164;2022-11-20T05:13:37;43.75;;;13.45;;
68247;SDS011;55064;49.636;12.164;2022-11-20T05:18:33;40.92;;;13.07;;
68247;SDS011;55064;49.636;12.164;2022-11-20T05:20:59;37.07;;;12.10;;
68247;SDS011;55064;49.636;12.164;2022-11-20T05:23:25;41.40;;;12.98;;
68247;SDS011;55064;49.636;12.164;2022-11-20T05:25:51;38.88;;;12.80;;
68247;SDS011;55064;49.636;12.164;2022-11-20T05:28:18;37.93;;;11.33;;
68247;SDS011;55064;49.636;12.164;2022-11-20T05:30:44;38.50;;;12.25;;
68247;SDS011;55064;49.636;12.164;2022-11-20T05:33:09;38.10;;;12.97;;
68247;SDS011;55064;49.636;12.164;2022-11-20T05:35:34;41.77;;;12.60;;
68247;SDS011;55064;49.636;12.164;2022-11-20T05:38:02;35.40;;;11.90;;
68247;SDS011;55064;49.636;12.164;2022-11-20T05:40:27;39.43;;;11.83;;
68247;SDS011;55064;49.636;12.164;2022-11-20T05:42:53;36.90;;;11.18;;
68247;SDS011;55064;49.636;12.164;2022-11-20T05:45:18;42.07;;;13.67;;
68247;SDS011;55064;49.636;12.164;2022-11-20T05:47:45;41.40;;;13.20;;
68247;SDS011;55064;49.636;12.164;2022-11-20T05:50:10;43.22;;;14.45;;
68247;SDS011;55064;49.636;12.164;2022-11-20T05:52:35;42.23;;;13.80;;
68247;SDS011;55064;49.636;12.164;2022-11-20T05:55:01;37.10;;;12.73;;
68247;SDS011;55064;49.636;12.164;2022-11-20T05:57:26;38.53;;;13.83;;
68247;SDS011;55064;49.636;12.164;2022-11-20T05:59:52;34.03;;;12.00;;
68247;SDS011;55064;49.636;12.164;2022-11-20T06:02:19;36.97;;;12.90;;
68247;SDS011;55064;49.636;12.164;2022-11-20T06:04:45;42.80;;;12.93;;
68247;SDS011;55064;49.636;12.164;2022-11-20T06:07:12;39.67;;;13.85;;
68247;SDS011;55064;49.636;12.164;2022-11-20T06:09:40;40.67;;;13.00;;
68247;SDS011;55064;49.636;12.164;2022-11-20T06:12:08;36.60;;;12.38;;
68247;SDS011;55064;49.636;12.164;2022-11-20T06:14:33;36.40;;;11.97;;
68247;SDS011;55064;49.636;12.164;2022-11-20T06:16:59;35.73;;;11.70;;
68247;SDS011;55064;49.636;12.164;2022-11-20T06:19:24;42.93;;;13.33;;
68247;SDS011;55064;49.636;12.164;2022-11-20T06:21:52;42.65;;;13.05;;
68247;SDS011;55064;49.636;12.164;2022-11-20T06:24:17;43.03;;;12.83;;
68247;SDS011;55064;49.636;12.164;2022-11-20T06:26:43;41.50;;;13.87;;
68247;SDS011;55064;49.636;12.164;2022-11-20T06:29:11;45.30;;;14.10;;
68247;SDS011;55064;49.636;12.164;2022-11-20T06:31:42;46.30;;;14.25;;
68247;SDS011;55064;49.636;12.164;2022-11-20T06:34:07;36.28;;;12.23;;
68247;SDS011;55064;49.636;12.164;2022-11-20T06:36:33;37.47;;;12.77;;
68247;SDS011;55064;49.636;12.164;2022-11-20T06:39:03;40.35;;;12.50;;
68247;SDS011;55064;49.636;12.164;2022-11-20T06:41:31;35.72;;;12.10;;
68247;SDS011;55064;49.636;12.164;2022-11-20T06:43:56;38.75;;;13.48;;
68247;SDS011;55064;49.636;12.164;2022-11-20T06:46:21;37.90;;;12.40;;
68247;SDS011;55064;49.636;12.164;2022-11-20T06:48:47;36.40;;;12.83;;
68247;SDS011;55064;49.636;12.164;2022-11-20T06:51:14;40.30;;;13.02;;
68247;SDS011;55064;49.636;12.164;2022-11-20T06:53:39;37.93;;;13.00;;
68247;SDS011;55064;49.636;12.164;2022-11-20T06:56:05;37.40;;;11.93;;
68247;SDS011;55064;49.636;12.164;2022-11-20T06:58:31;36.30;;;12.37;;
68247;SDS011;55064;49.636;12.164;2022-11-20T07:01:10;37.35;;;12.05;;
68247;SDS011;55064;49.636;12.164;2022-11-20T07:03:37;38.42;;;12.02;;
68247;SDS011;55064;49.636;12.164;2022-11-20T07:06:05;36.60;;;13.63;;
68247;SDS011;55064;49.636;12.164;2022-11-20T07:08:33;39.72;;;13.52;;
68247;SDS011;55064;49.636;12.164;2022-11-20T07:11:00;40.13;;;12.63;;
68247;SDS011;55064;49.636;12.164;2022-11-20T07:13:27;39.30;;;12.63;;
68247;SDS011;55064;49.636;12.164;2022-11-20T07:15:53;40.22;;;13.23;;
68247;SDS011;55064;49.636;12.164;2022-11-20T07:18:18;34.83;;;11.98;;
68247;SDS011;55064;49.636;12.164;2022-11-20T07:20:44;38.67;;;13.43;;
68247;SDS011;55064;49.636;12.164;2022-11-20T07:23:12;36.30;;;12.67;;
68247;SDS011;55064;49.636;12.164;2022-11-20T07:25:39;36.78;;;13.00;;
68247;SDS011;55064;49.636;12.164;2022-11-20T07:28:06;37.97;;;13.20;;
68247;SDS011;55064;49.636;12.164;2022-11-20T07:30:31;39.97;;;12.43;;
68247;SDS011;55064;49.636;12.164;2022-11-20T07:32:59;34.25;;;12.25;;
68247;SDS011;55064;49.636;12.164;2022-11-20T07:35:27;36.27;;;12.93;;
68247;SDS011;55064;49.636;12.164;2022-11-20T07:37:52;37.40;;;11.57;;
68247;SDS011;55064;49.636;12.164;2022-11-20T07:40:18;39.17;;;13.37;;
68247;SDS011;55064;49.636;12.164;2022-11-20T07:42:54;35.33;;;12.68;;
68247;SDS011;55064;49.636;12.164;2022-11-20T07:45:21;62.00;;;22.43;;
68247;SDS011;55064;49.636;12.164;2022-11-20T07:47:49;59.95;;;24.05;;
68247;SDS011;55064;49.636;12.164;2022-11-20T07:50:16;51.58;;;19.75;;
68247;SDS011;55064;49.636;12.164;2022-11-20T07:57:55;42.90;;;16.97;;
68247;SDS011;55064;49.636;12.164;2022-11-20T08:00:22;40.35;;;14.40;;
68247;SDS011;55064;49.636;12.164;2022-11-20T08:02:47;39.40;;;14.27;;
68247;SDS011;55064;49.636;12.164;2022-11-20T08:05:13;35.83;;;11.97;;
68247;SDS011;55064;49.636;12.164;2022-11-20T08:07:39;35.30;;;11.38;;
68247;SDS011;55064;49.636;12.164;2022-11-20T08:10:06;39.10;;;13.03;;
68247;SDS011;55064;49.636;12.164;2022-11-20T08:12:33;37.88;;;12.35;;
68247;SDS011;55064;49.636;12.164;2022-11-20T08:15:17;37.25;;;12.25;;
68247;SDS011;55064;49.636;12.164;2022-11-20T08:17:51;36.67;;;13.05;;
68247;SDS011;55064;49.636;12.164;2022-11-20T08:20:17;39.83;;;12.98;;
68247;SDS011;55064;49.636;12.164;2022-11-20T08:22:45;39.43;;;13.20;;
68247;SDS011;55064;49.636;12.164;2022-11-20T08:25:13;35.00;;;12.52;;
68247;SDS011;55064;49.636;12.164;2022-11-20T08:27:41;36.27;;;11.97;;
68247;SDS011;55064;49.636;12.164;2022-11-20T08:30:06;37.08;;;12.82;;
68247;SDS011;55064;49.636;12.164;2022-11-20T08:32:32;39.90;;;13.70;;
68247;SDS011;55064;49.636;12.164;2022-11-20T08:35:01;40.70;;;14.35;;
68247;SDS011;55064;49.636;12.164;2022-11-20T08:37:27;36.78;;;13.57;;
68247;SDS011;55064;49.636;12.164;2022-11-20T08:39:52;41.33;;;13.43;;
68247;SDS011;55064;49.636;12.164;2022-11-20T08:42:22;34.92;;;12.23;;
68247;SDS011;55064;49.636;12.164;2022-11-20T08:44:51;34.67;;;12.07;;
68247;SDS011;55064;49.636;12.164;2022-11-20T08:47:21;36.40;;;11.02;;
68247;SDS011;55064;49.636;12.164;2022-11-20T08:49:51;37.97;;;13.10;;
68247;SDS011;55064;49.636;12.164;2022-11-20T08:52:19;33.38;;;12.65;;
68247;SDS011;55064;49.636;12.164;2022-11-20T08:54:44;33.50;;;11.82;;
68247;SDS011;55064;49.636;12.164;2022-11-20T08:57:10;31.43;;;10.63;;
68247;SDS011;55064;49.636;12.164;2022-11-20T08:59:35;34.17;;;11.40;;
68247;SDS011;55064;49.636;12.164;2022-11-20T09:02:01;35.57;;;11.57;;
68247;SDS011;55064;49.636;12.164;2022-11-20T09:04:26;31.77;;;11.07;;
68247;SDS011;55064;49.636;12.164;2022-11-20T09:06:54;32.90;;;12.00;;
68247;SDS011;55064;49.636;12.164;2022-11-20T09:09:21;35.75;;;11.75;;
68247;SDS011;55064;49.636;12.164;2022-11-20T09:11:49;35.63;;;12.53;;
68247;SDS011;55064;49.636;12.164;2022-11-20T09:14:15;35.30;;;12.40;;
68247;SDS011;55064;49.636;12.164;2022-11-20T09:16:40;32.63;;;11.13;;
68247;SDS011;55064;49.636;12.164;2022-11-20T09:19:09;37.20;;;13.10;;
68247;SDS011;55064;49.636;12.164;2022-11-20T09:21:34;39.43;;;12.90;;
68247;SDS011;55064;49.636;12.164;2022-11-20T09:24:02;39.85;;;13.43;;
68247;SDS011;55064;49.636;12.164;2022-11-20T09:26:29;37.73;;;13.10;;
68247;SDS011;55064;49.636;12.164;2022-11-20T09:28:54;41.70;;;14.77;;
68247;SDS011;55064;49.636;12.164;2022-11-20T09:31:23;39.92;;;14.27;;
68247;SDS011;55064;49.636;12.164;2022-11-20T09:33:51;50.97;;;19.30;;
68247;SDS011;55064;49.636;12.164;2022-11-20T09:36:17;48.38;;;17.45;;
68247;SDS011;55064;49.636;12.164;2022-11-20T09:38:44;46.40;;;16.43;;
68247;SDS011;55064;49.636;12.164;2022-11-20T09:44:13;41.28;;;16.02;;
68247;SDS011;55064;49.636;12.164;2022-11-20T09:52:34;57.87;;;19.57;;
68247;SDS011;55064;49.636;12.164;2022-11-20T09:55:02;55.17;;;19.63;;
68247;SDS011;55064;49.636;12.164;2022-11-20T09:57:34;48.33;;;15.90;;
68247;SDS011;55064;49.636;12.164;2022-11-20T10:00:03;40.58;;;13.57;;
68247;SDS011;55064;49.636;12.164;2022-11-20T10:02:34;43.10;;;14.85;;
68247;SDS011;55064;49.636;12.164;2022-11-20T10:05:25;36.57;;;13.17;;
68247;SDS011;55064;49.636;12.164;2022-11-20T10:10:45;33.95;;;12.00;;
68247;SDS011;55064;49.636;12.164;2022-11-20T10:13:22;40.90;;;14.75;;
68247;SDS011;55064;49.636;12.164;2022-11-20T10:18:58;36.47;;;12.77;;
68247;SDS011;55064;49.636;12.164;2022-11-20T10:21:52;27.83;;;10.45;;
68247;SDS011;55064;49.636;12.164;2022-11-20T10:29:46;36.03;;;13.05;;
68247;SDS011;55064;49.636;12.164;2022-11-20T10:32:18;28.00;;;10.37;;
68247;SDS011;55064;49.636;12.164;2022-11-20T10:37:24;30.13;;;10.73;;
68247;SDS011;55064;49.636;12.164;2022-11-20T10:47:44;29.45;;;10.52;;
68247;SDS011;55064;49.636;12.164;2022-11-20T10:50:12;29.07;;;10.43;;
68247;SDS011;55064;49.636;12.164;2022-11-20T11:01:05;26.13;;;10.23;;
68247;SDS011;55064;49.636;12.164;2022-11-20T11:03:44;26.77;;;9.20;;
68247;SDS011;55064;49.636;12.164;2022-11-20T11:06:20;24.40;;;8.77;;
68247;SDS011;55064;49.636;12.164;2022-11-20T11:08:49;26.80;;;9.65;;
68247;SDS011;55064;49.636;12.164;2022-11-20T11:13:44;30.43;;;10.87;;
68247;SDS011;55064;49.636;12.164;2022-11-20T11:16:22;34.70;;;12.93;;
68247;SDS011;55064;49.636;12.164;2022-11-20T11:18:49;34.88;;;13.55;;
68247;SDS011;55064;49.636;12.164;2022-11-20T11:21:28;42.53;;;14.10;;
68247;SDS011;55064;49.636;12.164;2022-11-20T11:24:03;27.07;;;10.90;;
68247;SDS011;55064;49.636;12.164;2022-11-20T11:26:29;29.55;;;11.38;;
68247;SDS011;55064;49.636;12.164;2022-11-20T11:31:32;24.40;;;10.30;;
68247;SDS011;55064;49.636;12.164;2022-11-20T11:34:05;21.13;;;8.70;;
68247;SDS011;55064;49.636;12.164;2022-11-20T11:36:31;30.10;;;10.10;;
68247;SDS011;55064;49.636;12.164;2022-11-20T11:38:59;22.77;;;8.93;;
68247;SDS011;55064;49.636;12.164;2022-11-20T11:41:28;22.55;;;9.15;;
68247;SDS011;55064;49.636;12.164;2022-11-20T11:43:58;23.13;;;8.55;;
68247;SDS011;55064;49.636;12.164;2022-11-20T11:46:52;21.70;;;7.90;;
68247;SDS011;55064;49.636;12.164;2022-11-20T11:49:19;20.63;;;7.83;;
68247;SDS011;55064;49.636;12.164;2022-11-20T11:51:56;23.23;;;8.57;;
68247;SDS011;55064;49.636;12.164;2022-11-20T11:54:45;20.63;;;8.90;;
68247;SDS011;55064;49.636;12.164;2022-11-20T11:57:28;16.95;;;7.30;;
68247;SDS011;55064;49.636;12.164;2022-11-20T12:00:06;21.67;;;7.95;;
68247;SDS011;55064;49.636;12.164;2022-11-20T12:07:41;13.93;;;6.00;;
68247;SDS011;55064;49.636;12.164;2022-11-20T12:13:14;18.60;;;8.02;;
68247;SDS011;55064;49.636;12.164;2022-11-20T12:15:53;17.02;;;7.85;;
68247;SDS011;55064;49.636;12.164;2022-11-20T12:18:19;18.57;;;7.87;;
68247;SDS011;55064;49.636;12.164;2022-11-20T12:21:21;31.67;;;9.30;;
68247;SDS011;55064;49.636;12.164;2022-11-20T12:24:10;24.58;;;8.00;;
68247;SDS011;55064;49.636;12.164;2022-11-20T12:38:18;31.23;;;7.72;;
68247;SDS011;55064;49.636;12.164;2022-11-20T12:41:00;18.55;;;6.00;;
68247;SDS011;55064;49.636;12.164;2022-11-20T12:55:54;16.75;;;6.32;;
68247;SDS011;55064;49.636;12.164;2022-11-20T12:58:30;16.83;;;7.23;;
68247;SDS011;55064;49.636;12.164;2022-11-20T13:01:12;16.27;;;5.68;;
68247;SDS011;55064;49.636;12.164;2022-11-20T13:04:07;16.10;;;5.63;;
68247;SDS011;55064;49.636;12.164;2022-11-20T13:06:52;13.25;;;4.90;;
68247;SDS011;55064;49.636;12.164;2022-11-20T13:09:19;15.77;;;6.22;;
68247;SDS011;55064;49.636;12.164;2022-11-20T13:11:53;14.93;;;5.27;;
68247;SDS011;55064;49.636;12.164;2022-11-20T13:20:30;13.07;;;4.65;;
68247;SDS011;55064;49.636;12.164;2022-11-20T13:22:58;13.27;;;5.32;;
68247;SDS011;55064;49.636;12.164;2022-11-20T13:27:53;12.85;;;5.22;;
68247;SDS011;55064;49.636;12.164;2022-11-20T13:30:23;12.03;;;4.63;;
68247;SDS011;55064;49.636;12.164;2022-11-20T13:32:53;12.27;;;4.97;;
68247;SDS011;55064;49.636;12.164;2022-11-20T13:35:30;13.38;;;5.25;;
68247;SDS011;55064;49.636;12.164;2022-11-20T13:38:04;15.95;;;6.03;;
68247;SDS011;55064;49.636;12.164;2022-11-20T13:43:46;13.47;;;4.87;;
68247;SDS011;55064;49.636;12.164;2022-11-20T13:46:13;14.38;;;4.78;;
68247;SDS011;55064;49.636;12.164;2022-11-20T13:48:43;15.13;;;5.30;;
68247;SDS011;55064;49.636;12.164;2022-11-20T13:57:12;10.90;;;4.37;;
68247;SDS011;55064;49.636;12.164;2022-11-20T14:03:09;13.02;;;4.13;;
68247;SDS011;55064;49.636;12.164;2022-11-20T14:05:54;8.05;;;3.42;;
68247;SDS011;55064;49.636;12.164;2022-11-20T14:11:03;11.23;;;4.53;;
68247;SDS011;55064;49.636;12.164;2022-11-20T14:14:02;11.65;;;4.95;;
68247;SDS011;55064;49.636;12.164;2022-11-20T14:16:36;13.80;;;5.20;;
68247;SDS011;55064;49.636;12.164;2022-11-20T14:21:50;11.98;;;4.47;;
68247;SDS011;55064;49.636;12.164;2022-11-20T14:24:36;9.77;;;4.30;;
68247;SDS011;55064;49.636;12.164;2022-11-20T14:27:02;14.10;;;5.20;;
68247;SDS011;55064;49.636;12.164;2022-11-20T14:32:29;14.02;;;6.00;;
68247;SDS011;55064;49.636;12.164;2022-11-20T14:34:56;16.70;;;6.00;;
68247;SDS011;55064;49.636;12.164;2022-11-20T14:37:41;12.68;;;5.43;;
68247;SDS011;55064;49.636;12.164;2022-11-20T14:40:23;12.73;;;5.40;;
68247;SDS011;55064;49.636;12.164;2022-11-20T14:46:03;10.27;;;4.28;;
68247;SDS011;55064;49.636;12.164;2022-11-20T14:48:39;12.70;;;4.57;;
68247;SDS011;55064;49.636;12.164;2022-11-20T14:51:12;14.82;;;6.78;;
68247;SDS011;55064;49.636;12.164;2022-11-20T14:56:39;14.00;;;6.45;;
68247;SDS011;55064;49.636;12.164;2022-11-20T14:59:04;14.43;;;6.45;;
68247;SDS011;55064;49.636;12.164;2022-11-20T15:01:30;15.57;;;6.70;;
68247;SDS011;55064;49.636;12.164;2022-11-20T15:04:01;13.05;;;6.03;;
68247;SDS011;55064;49.636;12.164;2022-11-20T15:06:31;16.13;;;6.50;;
68247;SDS011;55064;49.636;12.164;2022-11-20T15:08:56;12.40;;;5.40;;
68247;SDS011;55064;49.636;12.164;2022-11-20T15:11:29;12.05;;;5.65;;
68247;SDS011;55064;49.636;12.164;2022-11-20T15:14:03;14.50;;;6.67;;
68247;SDS011;55064;49.636;12.164;2022-11-20T15:16:32;14.55;;;6.35;;
68247;SDS011;55064;49.636;12.164;2022-11-20T15:19:00;15.05;;;6.82;;
68247;SDS011;55064;49.636;12.164;2022-11-20T15:21:27;19.35;;;8.85;;
68247;SDS011;55064;49.636;12.164;2022-11-20T15:23:54;24.55;;;9.35;;
68247;SDS011;55064;49.636;12.164;2022-11-20T15:26:23;23.87;;;9.60;;
68247;SDS011;55064;49.636;12.164;2022-11-20T15:28:51;15.00;;;6.22;;
68247;SDS011;55064;49.636;12.164;2022-11-20T15:31:18;18.88;;;7.35;;
68247;SDS011;55064;49.636;12.164;2022-11-20T15:33:45;15.60;;;5.90;;
68247;SDS011;55064;49.636;12.164;2022-11-20T15:36:11;11.03;;;4.80;;
68247;SDS011;55064;49.636;12.164;2022-11-20T15:38:39;16.02;;;5.30;;
68247;SDS011;55064;49.636;12.164;2022-11-20T15:41:10;14.52;;;5.65;;
68247;SDS011;55064;49.636;12.164;2022-11-20T15:43:38;12.47;;;5.70;;
68247;SDS011;55064;49.636;12.164;2022-11-20T15:46:05;15.48;;;6.32;;
68247;SDS011;55064;49.636;12.164;2022-11-20T15:48:38;20.37;;;9.13;;
68247;SDS011;55064;49.636;12.164;2022-11-20T15:53:36;19.35;;;9.98;;
68247;SDS011;55064;49.636;12.164;2022-11-20T15:56:02;17.73;;;9.27;;
68247;SDS011;55064;49.636;12.164;2022-11-20T15:58:28;14.57;;;7.63;;
68247;SDS011;55064;49.636;12.164;2022-11-20T16:00:54;20.88;;;9.00;;
68247;SDS011;55064;49.636;12.164;2022-11-20T16:03:19;24.90;;;10.37;;
68247;SDS011;55064;49.636;12.164;2022-11-20T16:05:45;29.83;;;12.43;;
68247;SDS011;55064;49.636;12.164;2022-11-20T16:08:10;21.10;;;11.30;;
68247;SDS011;55064;49.636;12.164;2022-11-20T16:10:39;17.73;;;8.27;;
68247;SDS011;55064;49.636;12.164;2022-11-20T16:13:13;19.73;;;9.18;;
68247;SDS011;55064;49.636;12.164;2022-11-20T16:15:59;24.85;;;10.80;;
68247;SDS011;55064;49.636;12.164;2022-11-20T16:18:30;33.45;;;13.38;;
68247;SDS011;55064;49.636;12.164;2022-11-20T16:21:00;43.35;;;14.93;;
68247;SDS011;55064;49.636;12.164;2022-11-20T16:23:27;29.40;;;13.50;;
68247;SDS011;55064;49.636;12.164;2022-11-20T16:25:54;32.50;;;13.45;;
68247;SDS011;55064;49.636;12.164;2022-11-20T16:28:20;25.52;;;11.13;;
68247;SDS011;55064;49.636;12.164;2022-11-20T16:30:50;32.88;;;15.82;;
68247;SDS011;55064;49.636;12.164;2022-11-20T16:33:17;24.07;;;9.40;;
68247;SDS011;55064;49.636;12.164;2022-11-20T16:35:45;22.15;;;9.77;;
68247;SDS011;55064;49.636;12.164;2022-11-20T16:38:11;20.67;;;9.47;;
68247;SDS011;55064;49.636;12.164;2022-11-20T16:40:36;17.08;;;7.63;;